createdAt,value
2019-05-10T00:00:16.878Z,10.70
2019-05-10T00:01:16.833Z,10.70
2019-05-10T00:02:16.792Z,10.73
2019-05-10T00:03:16.764Z,10.70
2019-05-10T00:04:16.731Z,10.79
2019-05-10T00:05:16.690Z,10.63
2019-05-10T00:06:16.644Z,10.59
2019-05-10T00:07:16.666Z,10.61
2019-05-10T00:08:16.582Z,10.63
2019-05-10T00:09:16.539Z,10.60
2019-05-10T00:10:16.496Z,10.52
2019-05-10T00:11:16.471Z,10.41
2019-05-10T00:12:16.448Z,10.45
2019-05-10T00:13:16.401Z,10.51
2019-05-10T00:14:16.376Z,10.42
2019-05-10T00:15:16.376Z,10.33
2019-05-10T00:16:16.274Z,10.26
2019-05-10T00:17:16.258Z,10.29
2019-05-10T00:18:16.212Z,10.27
2019-05-10T00:19:16.187Z,10.25
2019-05-10T00:20:16.166Z,10.12
2019-05-10T00:21:16.093Z,10.07
2019-05-10T00:22:16.092Z,10.05
2019-05-10T00:23:16.032Z,10.08
2019-05-10T00:24:15.991Z,10.15
2019-05-10T00:25:15.951Z,10.12
2019-05-10T00:26:15.926Z,9.96
2019-05-10T00:27:15.888Z,9.90
2019-05-10T00:28:15.857Z,9.97
2019-05-10T00:29:15.836Z,9.83
2019-05-10T00:30:16.406Z,9.75
2019-05-10T00:31:15.738Z,9.68
2019-05-10T00:32:15.772Z,9.78
2019-05-10T00:33:15.660Z,9.81
2019-05-10T00:34:15.658Z,9.83
2019-05-10T00:35:15.610Z,9.79
2019-05-10T00:36:15.563Z,9.68
2019-05-10T00:37:15.543Z,9.58
2019-05-10T00:38:15.483Z,9.48
2019-05-10T00:39:19.231Z,9.39
2019-05-10T00:40:15.406Z,9.48
2019-05-10T00:41:15.378Z,9.56
2019-05-10T00:42:15.345Z,9.57
2019-05-10T00:43:15.302Z,9.66
2019-05-10T00:44:15.262Z,9.60
2019-05-10T00:45:15.213Z,9.64
2019-05-10T00:46:15.222Z,9.68
2019-05-10T00:47:15.167Z,9.74
2019-05-10T00:48:15.115Z,9.76
2019-05-10T00:49:15.082Z,9.68
2019-05-10T00:50:20.632Z,9.69
2019-05-10T00:51:17.942Z,9.78
2019-05-10T00:52:18.471Z,9.76
2019-05-10T00:54:08.627Z,9.66
2019-05-10T00:55:18.456Z,9.71
2019-05-10T00:57:02.192Z,9.61
2019-05-10T00:58:02.006Z,9.57
2019-05-10T00:59:56.643Z,9.69
2019-05-10T01:00:56.499Z,9.64
2019-05-10T01:01:56.492Z,9.60
2019-05-10T01:02:56.450Z,9.57
2019-05-10T01:03:56.394Z,9.56
2019-05-10T01:04:56.362Z,9.58
2019-05-10T01:05:56.372Z,9.60
2019-05-10T01:06:56.659Z,9.58
2019-05-10T01:07:56.239Z,9.56
2019-05-10T01:08:56.206Z,9.58
2019-05-10T01:09:56.150Z,9.71
2019-05-10T01:10:56.105Z,9.74
2019-05-10T01:11:56.088Z,9.76
2019-05-10T01:12:56.054Z,9.76
2019-05-10T01:13:56.011Z,9.76
2019-05-10T01:14:55.986Z,9.81
2019-05-10T01:15:55.935Z,9.76
2019-05-10T01:16:55.893Z,9.72
2019-05-10T01:17:55.867Z,9.78
2019-05-10T01:18:55.820Z,9.76
2019-05-10T01:19:55.817Z,9.84
2019-05-10T01:20:55.747Z,9.72
2019-05-10T01:21:55.700Z,9.81
2019-05-10T01:22:55.664Z,9.86
2019-05-10T01:23:55.629Z,9.91
2019-05-10T01:24:55.602Z,9.90
2019-05-10T01:25:55.580Z,9.89
2019-05-10T01:26:55.533Z,9.89
2019-05-10T01:27:55.495Z,9.86
2019-05-10T01:28:55.465Z,9.78
2019-05-10T01:29:55.410Z,9.79
2019-05-10T01:30:55.407Z,9.79
2019-05-10T01:31:55.354Z,9.79
2019-05-10T01:32:55.297Z,9.78
2019-05-10T01:33:55.280Z,9.68
2019-05-10T01:34:55.219Z,9.74
2019-05-10T01:35:55.179Z,9.69
2019-05-10T01:36:55.142Z,9.71
2019-05-10T01:37:55.099Z,9.61
2019-05-10T01:38:55.073Z,9.48
2019-05-10T01:39:55.044Z,9.58
2019-05-10T01:40:54.995Z,9.69
2019-05-10T01:41:54.994Z,9.61
2019-05-10T01:42:54.929Z,9.48
2019-05-10T01:43:54.906Z,9.33
2019-05-10T01:44:54.837Z,9.33
2019-05-10T01:45:54.799Z,9.32
2019-05-10T01:46:54.780Z,9.42
2019-05-10T01:47:54.739Z,9.48
2019-05-10T01:48:54.709Z,9.28
2019-05-10T01:49:54.676Z,9.14
2019-05-10T01:50:54.637Z,9.17
2019-05-10T01:51:54.611Z,9.13
2019-05-10T01:52:54.552Z,9.14
2019-05-10T01:53:54.517Z,9.11
2019-05-10T01:54:54.497Z,9.15
2019-05-10T01:55:54.463Z,9.04
2019-05-10T01:56:54.397Z,9.15
2019-05-10T01:57:54.382Z,8.96
2019-05-10T01:58:54.347Z,8.92
2019-05-10T01:59:54.301Z,9.10
2019-05-10T02:00:54.249Z,8.96
2019-05-10T02:01:54.217Z,8.98
2019-05-10T02:02:54.201Z,8.87
2019-05-10T02:03:54.126Z,8.83
2019-05-10T02:04:54.099Z,8.84
2019-05-10T02:05:54.063Z,8.74
2019-05-10T02:06:54.049Z,8.53
2019-05-10T02:07:53.991Z,8.45
2019-05-10T02:08:53.941Z,8.55
2019-05-10T02:09:53.929Z,8.53
2019-05-10T02:10:53.890Z,8.48
2019-05-10T02:11:53.861Z,8.36
2019-05-10T02:12:53.800Z,8.41
2019-05-10T02:13:53.768Z,8.34
2019-05-10T02:14:53.792Z,8.22
2019-05-10T02:15:53.700Z,8.15
2019-05-10T02:16:53.667Z,8.00
2019-05-10T02:17:53.614Z,8.16
2019-05-10T02:18:53.584Z,8.11
2019-05-10T02:19:53.534Z,8.00
2019-05-10T02:20:53.511Z,8.00
2019-05-10T02:21:53.465Z,8.12
2019-05-10T02:22:53.436Z,7.98
2019-05-10T02:23:53.385Z,7.86
2019-05-10T02:24:53.356Z,8.08
2019-05-10T02:26:08.422Z,8.23
2019-05-10T02:26:53.282Z,8.16
2019-05-10T02:27:53.243Z,8.26
2019-05-10T02:28:53.212Z,8.07
2019-05-10T02:29:53.147Z,8.20
2019-05-10T02:30:53.131Z,8.20
2019-05-10T02:31:53.103Z,8.05
2019-05-10T02:32:53.052Z,7.97
2019-05-10T02:33:53.047Z,7.74
2019-05-10T02:34:52.972Z,7.71
2019-05-10T02:35:52.929Z,7.79
2019-05-10T02:36:52.879Z,7.77
2019-05-10T02:37:52.849Z,7.89
2019-05-10T02:38:52.815Z,7.97
2019-05-10T02:39:52.770Z,7.97
2019-05-10T02:40:55.821Z,7.90
2019-05-10T02:41:52.693Z,7.86
2019-05-10T02:42:52.664Z,7.82
2019-05-10T02:43:52.647Z,7.93
2019-05-10T02:44:52.586Z,7.95
2019-05-10T02:45:52.549Z,7.95
2019-05-10T02:46:52.504Z,7.87
2019-05-10T02:47:52.472Z,8.02
2019-05-10T02:49:30.008Z,8.05
2019-05-10T02:49:52.406Z,8.16
2019-05-10T02:51:47.067Z,8.19
2019-05-10T02:52:46.948Z,8.22
2019-05-10T02:53:46.903Z,8.26
2019-05-10T02:54:46.848Z,8.43
2019-05-10T02:55:46.803Z,8.61
2019-05-10T02:56:46.759Z,8.65
2019-05-10T02:57:46.715Z,8.74
2019-05-10T02:58:46.704Z,8.83
2019-05-10T02:59:46.678Z,8.79
2019-05-10T03:00:46.603Z,8.80
2019-05-10T03:01:46.593Z,8.79
2019-05-10T03:02:46.639Z,8.84
2019-05-10T03:03:46.526Z,8.92
2019-05-10T03:04:46.440Z,8.89
2019-05-10T03:05:48.573Z,8.95
2019-05-10T03:06:46.355Z,8.96
2019-05-10T03:07:46.312Z,8.98
2019-05-10T03:08:46.273Z,8.95
2019-05-10T03:09:46.238Z,8.91
2019-05-10T03:10:46.206Z,8.99
2019-05-10T03:11:46.183Z,8.92
2019-05-10T03:12:46.135Z,8.94
2019-05-10T03:13:46.079Z,8.94
2019-05-10T03:14:46.067Z,8.92
2019-05-10T03:15:46.007Z,8.98
2019-05-10T03:16:45.988Z,8.96
2019-05-10T03:17:45.975Z,8.95
2019-05-10T03:18:45.921Z,8.96
2019-05-10T03:19:45.911Z,8.94
2019-05-10T03:20:45.913Z,8.98
2019-05-10T03:21:45.819Z,8.94
2019-05-10T03:22:45.769Z,8.92
2019-05-10T03:23:45.734Z,8.99
2019-05-10T03:24:45.688Z,8.99
2019-05-10T03:25:45.639Z,8.98
2019-05-10T03:26:50.687Z,9.04
2019-05-10T03:27:45.623Z,8.94
2019-05-10T03:28:45.545Z,9.08
2019-05-10T03:29:45.492Z,9.11
2019-05-10T03:30:45.550Z,8.99
2019-05-10T03:31:45.433Z,9.08
2019-05-10T03:32:45.403Z,9.10
2019-05-10T03:33:45.345Z,9.10
2019-05-10T03:34:45.318Z,9.10
2019-05-10T03:35:45.316Z,9.17
2019-05-10T03:36:45.244Z,9.17
2019-05-10T03:37:45.185Z,9.10
2019-05-10T03:38:45.152Z,9.18
2019-05-10T03:39:45.111Z,9.24
2019-05-10T03:40:45.088Z,9.35
2019-05-10T03:41:45.718Z,9.38
2019-05-10T03:42:45.004Z,9.35
2019-05-10T03:43:44.979Z,9.39
2019-05-10T03:44:44.927Z,9.38
2019-05-10T03:45:44.890Z,9.36
2019-05-10T03:46:44.965Z,9.50
2019-05-10T03:47:44.812Z,9.54
2019-05-10T03:48:44.788Z,9.46
2019-05-10T03:49:44.734Z,9.46
2019-05-10T03:50:44.703Z,9.57
2019-05-10T03:51:44.680Z,9.64
2019-05-10T03:52:44.613Z,9.68
2019-05-10T03:53:44.590Z,9.69
2019-05-10T03:54:44.599Z,9.72
2019-05-10T03:55:45.238Z,9.60
2019-05-10T03:56:44.477Z,9.74
2019-05-10T03:57:44.437Z,9.68
2019-05-10T03:58:44.426Z,9.66
2019-05-10T03:59:44.378Z,9.76
2019-05-10T04:00:44.352Z,9.71
2019-05-10T04:01:44.297Z,9.69
2019-05-10T04:02:44.384Z,9.72
2019-05-10T04:03:44.240Z,9.66
2019-05-10T04:04:44.182Z,9.76
2019-05-10T04:05:44.153Z,9.71
2019-05-10T04:06:44.111Z,9.83
2019-05-10T04:07:44.077Z,9.78
2019-05-10T04:08:44.031Z,9.78
2019-05-10T04:09:43.993Z,9.81
2019-05-10T04:10:43.947Z,9.83
2019-05-10T04:11:43.922Z,9.83
2019-05-10T04:12:43.918Z,9.78
2019-05-10T04:13:43.842Z,9.76
2019-05-10T04:14:43.821Z,9.83
2019-05-10T04:15:43.765Z,9.81
2019-05-10T04:16:43.720Z,9.83
2019-05-10T04:17:43.685Z,9.79
2019-05-10T04:18:43.658Z,9.83
2019-05-10T04:19:43.609Z,9.83
2019-05-10T04:20:43.579Z,9.78
2019-05-10T04:21:43.546Z,9.86
2019-05-10T04:22:43.523Z,9.83
2019-05-10T04:23:43.459Z,9.91
2019-05-10T04:24:43.432Z,9.93
2019-05-10T04:25:43.395Z,9.89
2019-05-10T04:26:43.344Z,9.96
2019-05-10T04:27:44.249Z,10.09
2019-05-10T04:28:43.264Z,9.97
2019-05-10T04:29:43.239Z,10.02
2019-05-10T04:30:43.199Z,10.14
2019-05-10T04:31:43.166Z,10.27
2019-05-10T04:32:43.123Z,10.27
2019-05-10T04:33:43.074Z,10.30
2019-05-10T04:34:43.040Z,10.33
2019-05-10T04:35:43.018Z,10.36
2019-05-10T04:36:42.982Z,10.42
2019-05-10T04:37:42.939Z,10.41
2019-05-10T04:38:42.907Z,10.52
2019-05-10T04:39:42.868Z,10.51
2019-05-10T04:40:42.847Z,10.53
2019-05-10T04:41:42.794Z,10.45
2019-05-10T04:42:42.754Z,10.40
2019-05-10T04:43:42.721Z,10.53
2019-05-10T04:44:42.737Z,10.45
2019-05-10T04:45:42.685Z,10.60
2019-05-10T04:46:42.658Z,10.52
2019-05-10T04:47:42.571Z,10.64
2019-05-10T04:48:42.546Z,10.60
2019-05-10T04:49:42.498Z,10.68
2019-05-10T04:50:42.489Z,10.74
2019-05-10T04:51:42.505Z,10.68
2019-05-10T04:52:42.424Z,10.82
2019-05-10T04:53:42.347Z,10.67
2019-05-10T04:54:42.391Z,10.82
2019-05-10T04:55:42.295Z,10.82
2019-05-10T04:56:42.246Z,10.92
2019-05-10T04:57:50.625Z,11.00
2019-05-10T04:58:42.172Z,11.04
2019-05-10T04:59:42.144Z,11.07
2019-05-10T05:00:42.107Z,11.06
2019-05-10T05:01:42.087Z,11.03
2019-05-10T05:02:42.025Z,11.11
2019-05-10T05:03:41.991Z,11.19
2019-05-10T05:04:41.949Z,11.18
2019-05-10T05:05:41.922Z,11.18
2019-05-10T05:06:41.877Z,11.10
2019-05-10T05:07:41.837Z,11.28
2019-05-10T05:08:41.800Z,11.25
2019-05-10T05:09:41.781Z,11.36
2019-05-10T05:10:41.728Z,11.46
2019-05-10T05:11:41.701Z,11.54
2019-05-10T05:12:41.671Z,11.44
2019-05-10T05:13:41.641Z,11.51
2019-05-10T05:14:41.617Z,11.58
2019-05-10T05:15:41.571Z,11.57
2019-05-10T05:16:41.542Z,11.43
2019-05-10T05:17:41.502Z,11.49
2019-05-10T05:18:41.456Z,11.54
2019-05-10T05:19:41.407Z,11.55
2019-05-10T05:20:41.376Z,11.52
2019-05-10T05:21:41.358Z,11.65
2019-05-10T05:22:41.350Z,11.61
2019-05-10T05:23:41.265Z,11.58
2019-05-10T05:24:41.261Z,11.51
2019-05-10T05:25:41.864Z,11.58
2019-05-10T05:26:41.189Z,11.62
2019-05-10T05:27:41.127Z,11.70
2019-05-10T05:28:41.105Z,11.61
2019-05-10T05:29:41.076Z,11.69
2019-05-10T05:30:41.042Z,11.86
2019-05-10T05:31:40.986Z,11.96
2019-05-10T05:32:44.631Z,12.04
2019-05-10T05:33:40.935Z,12.17
2019-05-10T05:34:40.876Z,12.13
2019-05-10T05:35:40.852Z,12.24
2019-05-10T05:36:40.800Z,12.28
2019-05-10T05:37:41.333Z,12.35
2019-05-10T05:38:47.265Z,12.27
2019-05-10T05:39:40.763Z,12.29
2019-05-10T05:40:40.672Z,12.34
2019-05-10T05:41:48.754Z,12.32
2019-05-10T05:42:40.618Z,12.35
2019-05-10T05:43:45.813Z,12.47
2019-05-10T05:44:40.539Z,12.53
2019-05-10T05:45:40.500Z,12.75
2019-05-10T05:46:40.498Z,12.89
2019-05-10T05:47:42.272Z,12.93
2019-05-10T05:48:40.856Z,12.86
2019-05-10T05:49:40.334Z,12.86
2019-05-10T05:50:40.332Z,12.85
2019-05-10T05:51:41.291Z,12.83
2019-05-10T05:52:40.281Z,12.74
2019-05-10T05:53:42.184Z,12.50
2019-05-10T05:54:40.198Z,12.35
2019-05-10T05:55:40.139Z,12.31
2019-05-10T05:56:44.563Z,12.19
2019-05-10T05:57:40.097Z,12.21
2019-05-10T05:58:44.603Z,12.24
2019-05-10T05:59:39.999Z,12.32
2019-05-10T06:00:44.809Z,12.31
2019-05-10T06:01:39.925Z,12.34
2019-05-10T06:02:44.744Z,12.31
2019-05-10T06:03:39.849Z,12.49
2019-05-10T06:04:40.968Z,12.72
2019-05-10T06:05:39.782Z,13.00
2019-05-10T06:06:39.749Z,13.01
2019-05-10T06:07:39.729Z,13.01
2019-05-10T06:08:39.685Z,13.00
2019-05-10T06:09:39.643Z,13.04
2019-05-10T06:10:39.613Z,13.04
2019-05-10T06:11:39.575Z,13.12
2019-05-10T06:12:39.589Z,13.08
2019-05-10T06:13:39.517Z,13.14
2019-05-10T06:14:43.080Z,13.25
2019-05-10T06:15:39.439Z,13.20
2019-05-10T06:16:39.457Z,13.23
2019-05-10T06:17:39.428Z,13.05
2019-05-10T06:18:41.532Z,13.19
2019-05-10T06:19:39.306Z,13.17
2019-05-10T06:20:44.587Z,13.23
2019-05-10T06:21:39.258Z,13.14
2019-05-10T06:22:43.803Z,13.20
2019-05-10T06:23:39.192Z,13.29
2019-05-10T06:24:39.138Z,13.55
2019-05-10T06:25:42.246Z,13.84
2019-05-10T06:26:39.064Z,14.04
2019-05-10T06:27:40.928Z,14.06
2019-05-10T06:29:38.978Z,13.91
2019-05-10T06:30:38.910Z,13.87
2019-05-10T06:31:38.913Z,13.88
2019-05-10T06:32:38.874Z,13.99
2019-05-10T06:33:44.446Z,14.22
2019-05-10T06:34:40.224Z,14.42
2019-05-10T06:35:38.747Z,14.55
2019-05-10T06:36:38.765Z,14.47
2019-05-10T06:37:38.703Z,14.35
2019-05-10T06:38:38.687Z,14.24
2019-05-10T06:39:38.626Z,14.27
2019-05-10T06:40:46.377Z,14.22
2019-05-10T06:41:38.560Z,14.22
2019-05-10T06:42:38.589Z,14.28
2019-05-10T06:43:38.466Z,14.10
2019-05-10T06:44:38.481Z,14.07
2019-05-10T06:45:38.440Z,14.20
2019-05-10T06:46:38.435Z,14.07
2019-05-10T06:47:41.914Z,13.99
2019-05-10T06:48:38.295Z,14.00
2019-05-10T06:49:41.044Z,15.10
2019-05-10T06:50:38.228Z,15.68
2019-05-10T06:51:42.930Z,16.48
2019-05-10T06:52:38.186Z,17.25
2019-05-10T06:53:42.283Z,17.40
2019-05-10T06:54:38.112Z,17.87
2019-05-10T06:55:38.075Z,17.84
2019-05-10T06:56:38.078Z,17.82
2019-05-10T06:57:38.016Z,17.36
2019-05-10T06:58:38.488Z,17.01
2019-05-10T06:59:37.947Z,17.58
2019-05-10T07:00:43.916Z,17.46
2019-05-10T07:01:44.495Z,17.04
2019-05-10T07:02:37.852Z,17.78
2019-05-10T07:03:37.822Z,17.59
2019-05-10T07:04:40.987Z,16.67
2019-05-10T07:05:37.828Z,15.86
2019-05-10T07:06:38.310Z,15.65
2019-05-10T07:07:45.563Z,15.43
2019-05-10T07:08:44.263Z,14.96
2019-05-10T07:10:01.374Z,14.86
2019-05-10T07:10:37.603Z,14.95
2019-05-10T07:11:38.288Z,16.23
2019-05-10T07:12:37.703Z,17.15
2019-05-10T07:13:40.368Z,18.20
2019-05-10T07:14:44.974Z,18.57
2019-05-10T07:15:42.167Z,18.65
2019-05-10T07:16:37.469Z,18.41
2019-05-10T07:17:43.649Z,18.98
2019-05-10T07:18:37.356Z,18.81
2019-05-10T07:19:42.003Z,19.21
2019-05-10T07:20:37.308Z,18.21
2019-05-10T07:21:38.952Z,17.51
2019-05-10T07:22:37.285Z,17.06
2019-05-10T07:23:39.000Z,16.52
2019-05-10T07:24:37.191Z,15.92
2019-05-10T07:25:37.622Z,15.56
2019-05-10T07:26:37.179Z,15.36
2019-05-10T07:27:38.657Z,15.27
2019-05-10T07:28:37.087Z,15.16
2019-05-10T07:29:43.680Z,15.09
2019-05-10T07:30:40.520Z,15.25
2019-05-10T07:31:36.993Z,15.06
2019-05-10T07:32:37.010Z,15.07
2019-05-10T07:33:38.932Z,15.09
2019-05-10T07:34:36.929Z,14.91
2019-05-10T07:35:38.629Z,14.37
2019-05-10T07:36:36.857Z,14.29
2019-05-10T07:37:36.809Z,14.50
2019-05-10T07:38:36.773Z,14.61
2019-05-10T07:39:36.751Z,14.58
2019-05-10T07:40:36.739Z,14.60
2019-05-10T07:41:36.699Z,14.91
2019-05-10T07:42:39.744Z,15.03
2019-05-10T07:43:36.640Z,15.44
2019-05-10T07:44:36.593Z,17.19
2019-05-10T07:45:36.573Z,17.21
2019-05-10T07:46:40.220Z,16.64
2019-05-10T07:47:36.509Z,16.15
2019-05-10T07:48:41.323Z,16.12
2019-05-10T07:49:36.461Z,16.12
2019-05-10T07:50:36.447Z,15.83
2019-05-10T07:51:36.406Z,15.43
2019-05-10T07:52:43.152Z,15.29
2019-05-10T07:53:36.347Z,15.35
2019-05-10T07:54:37.572Z,15.23
2019-05-10T07:55:36.295Z,15.29
2019-05-10T07:56:38.880Z,15.20
2019-05-10T07:57:36.198Z,15.02
2019-05-10T07:58:38.219Z,14.91
2019-05-10T07:59:49.647Z,14.73
2019-05-10T08:00:37.900Z,14.96
2019-05-10T08:01:36.067Z,14.88
2019-05-10T08:02:36.039Z,15.01
2019-05-10T08:03:44.365Z,14.89
2019-05-10T08:04:38.291Z,14.94
2019-05-10T08:05:35.945Z,15.02
2019-05-10T08:06:44.409Z,15.16
2019-05-10T08:07:35.875Z,15.41
2019-05-10T08:08:35.858Z,15.32
2019-05-10T08:09:37.042Z,15.29
2019-05-10T08:10:35.782Z,15.34
2019-05-10T08:11:35.752Z,15.57
2019-05-10T08:12:43.768Z,16.30
2019-05-10T08:13:35.697Z,17.48
2019-05-10T08:14:35.691Z,18.75
2019-05-10T08:15:35.647Z,19.47
2019-05-10T08:16:35.608Z,19.40
2019-05-10T08:17:40.266Z,20.08
2019-05-10T08:18:35.538Z,20.28
2019-05-10T08:19:37.696Z,20.43
2019-05-10T08:21:35.468Z,21.12
2019-05-10T08:22:41.577Z,21.19
2019-05-10T08:23:36.317Z,20.51
2019-05-10T08:24:35.597Z,20.62
2019-05-10T08:25:40.666Z,21.17
2019-05-10T08:26:35.335Z,20.79
2019-05-10T08:27:35.267Z,20.64
2019-05-10T08:28:37.916Z,20.02
2019-05-10T08:29:35.210Z,19.51
2019-05-10T08:30:35.514Z,20.20
2019-05-10T08:31:40.568Z,20.21
2019-05-10T08:32:35.240Z,21.13
2019-05-10T08:33:35.103Z,21.64
2019-05-10T08:34:39.223Z,21.62
2019-05-10T08:35:36.682Z,21.40
2019-05-10T08:36:37.218Z,20.61
2019-05-10T08:37:37.831Z,19.88
2019-05-10T08:38:39.743Z,20.80
2019-05-10T08:39:45.644Z,21.27
2019-05-10T08:40:37.861Z,19.88
2019-05-10T08:41:34.925Z,19.08
2019-05-10T08:42:44.222Z,18.33
2019-05-10T08:43:38.845Z,18.78
2019-05-10T08:44:34.827Z,20.14
2019-05-10T08:45:38.893Z,19.56
2019-05-10T08:46:40.923Z,19.44
2019-05-10T08:47:34.771Z,20.92
2019-05-10T08:48:38.217Z,20.80
2019-05-10T08:49:43.657Z,19.28
2019-05-10T08:50:49.777Z,19.76
2019-05-10T08:51:34.834Z,19.83
2019-05-10T08:52:34.644Z,19.74
2019-05-10T08:53:34.604Z,19.37
2019-05-10T08:54:34.575Z,19.06
2019-05-10T08:55:34.551Z,18.98
2019-05-10T08:56:34.526Z,17.86
2019-05-10T08:57:43.322Z,17.49
2019-05-10T08:58:37.089Z,17.06
2019-05-10T08:59:34.453Z,17.14
2019-05-10T09:00:45.142Z,17.31
2019-05-10T09:01:44.397Z,17.38
2019-05-10T09:02:34.409Z,18.52
2019-05-10T09:03:34.380Z,18.60
2019-05-10T09:04:45.412Z,17.59
2019-05-10T09:05:34.307Z,18.23
2019-05-10T09:06:34.264Z,18.75
2019-05-10T09:07:38.847Z,19.43
2019-05-10T09:08:34.842Z,19.48
2019-05-10T09:09:46.756Z,18.95
2019-05-10T09:10:34.167Z,18.52
2019-05-10T09:11:34.180Z,18.14
2019-05-10T09:12:34.113Z,17.72
2019-05-10T09:13:40.956Z,17.40
2019-05-10T09:14:34.071Z,16.81
2019-05-10T09:15:34.038Z,17.43
2019-05-10T09:16:39.360Z,18.90
2019-05-10T09:17:33.986Z,19.46
2019-05-10T09:18:38.107Z,19.94
2019-05-10T09:19:40.696Z,19.50
2019-05-10T09:20:33.899Z,18.91
2019-05-10T09:21:33.875Z,17.99
2019-05-10T09:22:38.396Z,17.15
2019-05-10T09:23:33.813Z,18.58
2019-05-10T09:24:34.932Z,18.60
2019-05-10T09:25:33.947Z,19.29
2019-05-10T09:26:33.747Z,19.11
2019-05-10T09:27:33.713Z,19.37
2019-05-10T09:28:33.716Z,19.41
2019-05-10T09:29:37.195Z,19.84
2019-05-10T09:30:35.496Z,20.97
2019-05-10T09:31:33.629Z,21.58
2019-05-10T09:32:33.611Z,21.38
2019-05-10T09:33:33.570Z,21.03
2019-05-10T09:34:33.532Z,20.64
2019-05-10T09:35:33.518Z,19.88
2019-05-10T09:36:36.080Z,19.71
2019-05-10T09:37:33.452Z,19.62
2019-05-10T09:38:37.693Z,19.11
2019-05-10T09:39:33.439Z,18.58
2019-05-10T09:40:33.385Z,18.36
2019-05-10T09:41:38.085Z,18.65
2019-05-10T09:47:33.081Z,18.47
2019-05-10T09:48:12.274Z,18.63
2019-05-10T09:50:05.118Z,17.82
2019-05-10T09:51:05.054Z,17.66
2019-05-10T09:52:12.821Z,17.14
2019-05-10T09:53:07.327Z,17.08
2019-05-10T09:54:07.408Z,17.03
2019-05-10T09:55:10.149Z,17.03
2019-05-10T09:56:04.913Z,16.91
2019-05-10T09:57:04.922Z,16.70
2019-05-10T09:58:04.868Z,16.68
2019-05-10T09:59:04.863Z,16.63
2019-05-10T10:00:07.238Z,16.68
2019-05-10T10:01:14.787Z,16.48
2019-05-10T10:02:05.011Z,16.52
2019-05-10T10:03:04.721Z,16.64
2019-05-10T10:04:04.693Z,16.63
2019-05-10T10:05:04.655Z,16.81
2019-05-10T10:06:07.683Z,16.94
2019-05-10T10:07:04.609Z,16.83
2019-05-10T10:08:09.321Z,17.11
2019-05-10T10:09:07.276Z,17.41
2019-05-10T10:10:07.143Z,17.21
2019-05-10T10:11:11.508Z,17.87
2019-05-10T10:12:06.806Z,17.92
2019-05-10T10:13:11.501Z,17.93
2019-05-10T10:14:04.467Z,18.20
2019-05-10T10:15:04.392Z,18.23
2019-05-10T10:16:12.624Z,18.26
2019-05-10T10:17:04.320Z,18.15
2019-05-10T10:18:04.299Z,18.08
2019-05-10T10:19:04.350Z,17.97
2019-05-10T10:20:04.235Z,18.20
2019-05-10T10:21:04.186Z,18.03
2019-05-10T10:22:05.573Z,18.14
2019-05-10T10:23:04.138Z,17.97
2019-05-10T10:24:12.220Z,17.89
2019-05-10T10:25:04.073Z,18.20
2019-05-10T10:26:04.057Z,18.60
2019-05-10T10:27:04.009Z,18.60
2019-05-10T10:28:10.408Z,18.17
2019-05-10T10:29:03.989Z,18.02
2019-05-10T10:30:06.685Z,17.70
2019-05-10T10:31:05.382Z,17.38
2019-05-10T10:32:03.871Z,17.33
2019-05-10T10:33:05.740Z,17.30
2019-05-10T10:34:03.901Z,17.19
2019-05-10T10:35:03.794Z,17.14
2019-05-10T10:36:05.502Z,16.61
2019-05-10T10:37:03.733Z,16.41
2019-05-10T10:38:05.632Z,16.34
2019-05-10T10:39:03.672Z,16.33
2019-05-10T10:40:05.396Z,16.31
2019-05-10T10:41:03.615Z,16.12
2019-05-10T10:42:08.807Z,16.02
2019-05-10T10:43:03.544Z,15.78
2019-05-10T10:44:03.519Z,15.84
2019-05-10T10:45:03.907Z,15.80
2019-05-10T10:46:03.470Z,15.72
2019-05-10T10:47:03.427Z,15.94
2019-05-10T10:48:08.565Z,15.67
2019-05-10T10:49:05.368Z,15.78
2019-05-10T10:50:09.176Z,15.69
2019-05-10T10:51:03.324Z,15.65
2019-05-10T10:52:05.696Z,15.49
2019-05-10T10:53:03.265Z,15.14
2019-05-10T10:54:03.217Z,15.11
2019-05-10T10:55:05.669Z,15.13
2019-05-10T10:56:03.990Z,15.11
2019-05-10T10:57:03.148Z,15.03
2019-05-10T10:58:03.136Z,15.02
2019-05-10T10:59:03.075Z,15.29
2019-05-10T11:00:03.082Z,15.67
2019-05-10T11:01:10.849Z,16.53
2019-05-10T11:02:30.198Z,17.23
2019-05-10T11:03:02.930Z,17.77
2019-05-10T11:04:07.410Z,18.55
2019-05-10T11:05:02.876Z,18.94
2019-05-10T11:06:02.836Z,18.98
2019-05-10T11:07:10.582Z,18.60
2019-05-10T11:08:02.787Z,18.33
2019-05-10T11:09:02.781Z,17.38
2019-05-10T11:10:14.655Z,17.11
2019-05-10T11:11:02.694Z,16.73
2019-05-10T11:12:02.653Z,16.82
2019-05-10T11:13:08.148Z,17.48
2019-05-10T11:14:07.366Z,17.70
2019-05-10T11:15:02.567Z,18.17
2019-05-10T11:16:09.919Z,17.89
2019-05-10T11:17:02.505Z,17.92
2019-05-10T11:18:02.473Z,17.03
2019-05-10T11:19:03.641Z,16.79
2019-05-10T11:20:02.424Z,16.81
2019-05-10T11:21:02.406Z,16.76
2019-05-10T11:22:09.662Z,16.53
2019-05-10T11:23:02.320Z,16.48
2019-05-10T11:24:02.379Z,16.31
2019-05-10T11:25:09.059Z,16.11
2019-05-10T11:26:02.245Z,15.92
2019-05-10T11:27:02.249Z,15.76
2019-05-10T11:28:02.186Z,15.60
2019-05-10T11:29:02.143Z,15.38
2019-05-10T11:30:02.165Z,15.14
2019-05-10T11:31:02.079Z,15.16
2019-05-10T11:32:15.455Z,15.27
2019-05-10T11:33:02.042Z,15.43
2019-05-10T11:34:01.994Z,15.69
2019-05-10T11:35:05.236Z,15.90
2019-05-10T11:36:03.963Z,16.27
2019-05-10T11:37:01.920Z,16.48
2019-05-10T11:38:06.549Z,17.06
2019-05-10T11:39:01.908Z,17.30
2019-05-10T11:40:01.946Z,17.56
2019-05-10T11:41:02.288Z,18.14
2019-05-10T11:42:07.007Z,17.92
2019-05-10T11:43:01.725Z,18.00
2019-05-10T11:44:05.434Z,18.02
2019-05-10T11:45:01.684Z,17.89
2019-05-10T11:46:01.623Z,17.84
2019-05-10T11:47:01.703Z,17.15
2019-05-10T11:48:02.262Z,17.18
2019-05-10T11:49:01.892Z,17.23
2019-05-10T11:50:06.365Z,16.93
2019-05-10T11:51:05.743Z,16.63
2019-05-10T11:53:01.401Z,15.92
2019-05-10T11:54:01.396Z,15.64
2019-05-10T11:55:01.472Z,15.62
2019-05-10T11:56:02.262Z,15.44
2019-05-10T11:57:06.601Z,15.38
2019-05-10T11:59:03.904Z,16.34
2019-05-10T11:59:04.985Z,15.49
2019-05-10T12:00:01.189Z,15.86
2019-05-10T12:01:12.808Z,16.24
2019-05-10T12:02:02.908Z,16.45
2019-05-10T12:03:07.928Z,16.50
2019-05-10T12:04:02.116Z,16.71
2019-05-10T12:05:11.002Z,16.91
2019-05-10T12:07:02.755Z,17.01
2019-05-10T12:08:02.124Z,17.26
2019-05-10T12:09:04.383Z,17.62
2019-05-10T12:10:07.694Z,17.86
2019-05-10T12:11:12.437Z,17.84
2019-05-10T12:12:03.267Z,17.23
2019-05-10T12:13:11.371Z,17.19
2019-05-10T12:15:04.278Z,16.21
2019-05-10T12:16:00.713Z,16.41
2019-05-10T12:17:05.599Z,16.50
2019-05-10T12:18:04.519Z,16.56
2019-05-10T12:20:02.478Z,17.12
2019-05-10T12:22:04.677Z,17.78
2019-05-10T12:23:03.412Z,17.36
2019-05-10T12:24:10.427Z,17.31
2019-05-10T12:25:27.439Z,17.33
2019-05-10T12:26:05.084Z,16.97
2019-05-10T12:26:06.530Z,16.70
2019-05-10T12:26:06.533Z,16.78
2019-05-10T12:26:12.074Z,17.40
2019-05-10T12:26:18.046Z,15.36
2019-05-10T12:27:12.723Z,17.59
2019-05-10T12:27:18.650Z,17.71
2019-05-10T12:28:01.265Z,18.44
2019-05-10T12:29:11.627Z,18.95
2019-05-10T12:30:03.251Z,19.47
2019-05-10T12:31:01.450Z,19.36
2019-05-10T12:32:00.267Z,19.37
2019-05-10T12:33:08.942Z,19.00
2019-05-10T12:34:08.722Z,18.84
2019-05-10T12:35:01.477Z,18.75
2019-05-10T12:36:00.088Z,19.04
2019-05-10T12:37:06.305Z,18.52
2019-05-10T12:38:01.682Z,18.45
2019-05-10T12:39:01.796Z,17.90
2019-05-10T12:40:08.991Z,17.96
2019-05-10T12:41:01.325Z,18.14
2019-05-10T12:41:59.899Z,18.07
2019-05-10T12:43:00.691Z,18.00
2019-05-10T12:44:05.751Z,17.90
2019-05-10T12:45:01.288Z,17.90
2019-05-10T12:45:59.792Z,17.77
2019-05-10T12:47:01.256Z,17.84
2019-05-10T12:48:01.280Z,17.86
2019-05-10T12:49:02.075Z,17.82
2019-05-10T12:50:02.149Z,18.54
2019-05-10T12:51:07.656Z,18.57
2019-05-10T12:51:59.613Z,18.29
2019-05-10T12:53:12.640Z,18.41
2019-05-10T12:53:59.569Z,18.50
2019-05-10T12:54:59.593Z,18.51
2019-05-10T12:55:59.495Z,18.23
2019-05-10T12:56:59.474Z,18.03
2019-05-10T12:57:59.448Z,18.33
2019-05-10T12:58:59.807Z,18.17
2019-05-10T12:59:59.393Z,17.99
2019-05-10T13:00:59.356Z,18.02
2019-05-10T13:02:04.337Z,18.02
2019-05-10T13:03:12.237Z,18.14
2019-05-10T13:04:01.965Z,17.92
2019-05-10T13:04:59.236Z,17.46
2019-05-10T13:05:59.207Z,17.25
2019-05-10T13:06:59.176Z,17.11
2019-05-10T13:07:59.154Z,16.81
2019-05-10T13:08:59.127Z,16.64
2019-05-10T13:10:03.658Z,16.53
2019-05-10T13:10:59.065Z,16.41